Time;durP1;ratioP1;P1;durP2;ratioP2;P2;SDS_P1;SDS_P2;PMS_P1;PMS_P2;Temp;Humidity;BMP_temperature;BMP_pressure;BME280_temperature;BME280_humidity;BME280_pressure;Samples;Min_cycle;Max_cycle;Signal;HPM_P1;HPM_P2
2023/12/11 00:02:07;;;;;;;0.40;0.40;;;;;;;3.80;90.14;96971.31;5103147;28;20615;-68
2023/12/11 00:04:34;;;;;;;0.40;0.40;;;;;;;4.11;90.54;97037.56;5087832;28;20426;-69
2023/12/11 00:07:01;;;;;;;0.40;0.40;;;;;;;4.14;90.71;97036.91;5086302;28;20511;-69
2023/12/11 00:09:28;;;;;;;0.40;0.40;;;;;;;4.06;91.39;97043.22;5085729;28;20570;-68
2023/12/11 00:11:55;;;;;;;0.40;0.40;;;;;;;4.06;91.30;97034.22;5086129;28;20056;-69
2023/12/11 00:14:22;;;;;;;0.40;0.40;;;;;;;3.67;90.39;96977.78;5087556;28;20056;-69
2023/12/11 00:16:48;;;;;;;0.40;0.40;;;;;;;3.60;90.63;96977.50;5086061;28;20142;-69
2023/12/11 00:19:15;;;;;;;0.50;0.50;;;;;;;4.09;91.64;97053.56;5088111;28;20461;-69
2023/12/11 00:21:42;;;;;;;0.40;0.40;;;;;;;3.60;91.78;97032.28;5085654;28;20849;-69
2023/12/11 00:24:09;;;;;;;0.40;0.40;;;;;;;3.99;92.28;97064.88;5085682;28;20529;-68
2023/12/11 00:26:36;;;;;;;0.40;0.40;;;;;;;4.08;91.54;97082.06;5085587;28;20063;-68
2023/12/11 00:29:04;;;;;;;0.50;0.50;;;;;;;2.22;90.88;96745.66;5085917;28;20159;-69
2023/12/11 00:31:31;;;;;;;0.40;0.40;;;;;;;4.15;90.32;97079.66;5085912;28;20063;-68
2023/12/11 00:33:57;;;;;;;0.40;0.40;;;;;;;3.93;91.77;97057.97;5085391;28;20628;-68
2023/12/11 00:36:24;;;;;;;0.45;0.45;;;;;;;4.15;90.05;97082.38;5086662;28;20139;-68
2023/12/11 00:38:51;;;;;;;0.40;0.40;;;;;;;4.07;89.51;97091.44;5085981;28;20142;-69
2023/12/11 00:41:18;;;;;;;0.45;0.45;;;;;;;3.72;90.07;97035.13;5077471;28;20518;-68
2023/12/11 00:43:45;;;;;;;0.40;0.40;;;;;;;4.08;91.24;97104.00;5093341;28;20482;-69
2023/12/11 00:46:14;;;;;;;0.40;0.40;;;;;;;3.97;91.22;97066.31;5086655;28;20048;-68
2023/12/11 00:48:41;;;;;;;0.40;0.40;;;;;;;3.73;91.35;97036.72;5084761;28;20056;-68
2023/12/11 00:51:15;;;;;;;0.40;0.40;;;;;;;3.96;91.86;97079.22;5084984;28;20056;-69
2023/12/11 00:53:42;;;;;;;0.40;0.40;;;;;;;3.71;91.99;97039.00;5086542;28;20051;-68
2023/12/11 00:56:09;;;;;;;0.40;0.40;;;;;;;3.70;91.08;97037.38;5086468;28;20047;-68
2023/12/11 00:58:36;;;;;;;0.40;0.40;;;;;;;3.78;90.77;97066.69;5086720;28;20052;-69
2023/12/11 01:01:03;;;;;;;0.40;0.40;;;;;;;3.49;91.05;97020.06;5084935;28;20161;-69
2023/12/11 01:03:30;;;;;;;0.40;0.40;;;;;;;3.60;91.87;97070.63;5085066;28;20056;-69
2023/12/11 01:05:56;;;;;;;0.40;0.40;;;;;;;3.78;91.39;97074.13;5086109;28;20051;-69
2023/12/11 01:08:27;;;;;;;0.40;0.40;;;;;;;3.29;91.66;97020.72;5084720;28;20060;-68
2023/12/11 01:10:55;;;;;;;0.40;0.40;;;;;;;3.62;93.08;97057.38;5085902;28;20056;-69
2023/12/11 01:13:22;;;;;;;0.40;0.40;;;;;;;3.36;93.69;96998.34;5084787;28;20052;-69
2023/12/11 01:15:49;;;;;;;0.40;0.40;;;;;;;3.81;93.46;97040.59;5084529;28;20074;-69
2023/12/11 01:18:16;;;;;;;0.40;0.40;;;;;;;3.64;92.68;97035.13;5084173;28;20511;-69
2023/12/11 01:20:43;;;;;;;0.30;0.30;;;;;;;3.61;92.78;97028.41;5085793;28;20355;-69
2023/12/11 01:23:09;;;;;;;0.40;0.40;;;;;;;3.57;93.13;97027.44;5084221;28;20492;-69
2023/12/11 01:25:36;;;;;;;0.40;0.40;;;;;;;3.47;94.14;97014.09;5084217;28;20517;-68
2023/12/11 01:28:03;;;;;;;0.40;0.40;;;;;;;3.34;93.95;96975.94;5085823;28;20089;-68
2023/12/11 01:30:30;;;;;;;0.40;0.40;;;;;;;3.35;93.89;96975.63;5084495;28;20059;-69
2023/12/11 01:32:57;;;;;;;0.35;0.35;;;;;;;3.55;93.90;97013.28;5084288;28;20056;-68
2023/12/11 01:35:24;;;;;;;0.40;0.40;;;;;;;3.44;94.20;97006.53;5085555;28;20056;-68
2023/12/11 01:37:51;;;;;;;0.40;0.40;;;;;;;3.43;93.42;96999.44;5085552;28;20434;-68
2023/12/11 01:40:18;;;;;;;0.40;0.40;;;;;;;3.45;92.19;96991.72;5084159;28;20429;-68
2023/12/11 01:42:45;;;;;;;0.40;0.40;;;;;;;3.58;92.23;97007.16;5085469;28;20054;-68
2023/12/11 01:45:12;;;;;;;0.40;0.40;;;;;;;3.56;92.65;97003.91;5084031;28;20064;-69
2023/12/11 01:47:39;;;;;;;0.30;0.30;;;;;;;3.32;93.85;96992.69;5085214;28;20445;-68
2023/12/11 01:50:08;;;;;;;0.40;0.40;;;;;;;2.92;93.84;96939.34;5085062;28;20158;-69
2023/12/11 01:52:36;;;;;;;0.40;0.40;;;;;;;3.37;94.64;96995.25;5084251;28;20059;-68
2023/12/11 01:55:05;;;;;;;0.40;0.40;;;;;;;3.36;94.26;97004.63;5085242;28;20130;-67
2023/12/11 01:57:32;;;;;;;0.40;0.40;;;;;;;3.33;94.10;97010.75;5085214;28;20055;-69
2023/12/11 02:00:00;;;;;;;0.35;0.35;;;;;;;3.37;94.36;97022.63;5085539;28;20558;-68
2023/12/11 02:02:29;;;;;;;0.40;0.40;;;;;;;2.89;95.02;96923.56;5082938;28;20051;-69
2023/12/11 02:04:57;;;;;;;0.40;0.40;;;;;;;3.42;95.64;96997.84;5085294;28;20075;-69
2023/12/11 02:07:24;;;;;;;0.40;0.40;;;;;;;3.19;95.08;96943.63;5085217;28;20052;-69
2023/12/11 02:09:51;;;;;;;0.32;0.32;;;;;;;2.88;95.60;96905.53;5083687;28;20053;-68
2023/12/11 02:12:18;;;;;;;0.40;0.40;;;;;;;2.74;94.23;96937.72;5085143;28;20067;-67
2023/12/11 02:14:45;;;;;;;0.40;0.40;;;;;;;3.52;94.78;97013.94;5083591;28;20568;-68
2023/12/11 02:17:11;;;;;;;0.40;0.40;;;;;;;3.45;94.13;97002.66;5083407;28;20056;-69
2023/12/11 02:19:38;;;;;;;0.40;0.40;;;;;;;3.40;94.28;96989.13;5085137;28;20063;-68
2023/12/11 02:22:05;;;;;;;0.40;0.40;;;;;;;3.44;95.04;97009.28;5084644;28;20055;-68
2023/12/11 02:24:39;;;;;;;0.32;0.32;;;;;;;3.39;95.12;97003.97;5084839;28;20055;-68
2023/12/11 02:27:06;;;;;;;0.40;0.40;;;;;;;3.11;95.51;96959.72;5085044;28;20063;-69
2023/12/11 02:29:34;;;;;;;0.40;0.40;;;;;;;3.42;95.47;97008.78;5084843;28;20134;-68
2023/12/11 02:32:01;;;;;;;0.32;0.32;;;;;;;3.32;94.82;96992.69;5084852;28;20064;-68
2023/12/11 02:34:28;;;;;;;0.40;0.40;;;;;;;2.79;94.79;96904.75;5083128;28;20146;-68
2023/12/11 02:36:55;;;;;;;0.40;0.40;;;;;;;3.34;95.17;97006.88;5083333;28;20052;-67
2023/12/11 02:39:22;;;;;;;0.40;0.40;;;;;;;3.30;94.94;96977.75;5083627;28;20056;-69
2023/12/11 02:41:48;;;;;;;0.30;0.30;;;;;;;3.09;94.97;96942.03;5083391;28;20044;-68
2023/12/11 02:44:15;;;;;;;0.30;0.30;;;;;;;3.34;95.15;96976.75;5084861;28;20052;-68
2023/12/11 02:46:42;;;;;;;0.40;0.40;;;;;;;3.33;95.01;96983.38;5084939;28;20056;-69
2023/12/11 02:49:09;;;;;;;0.40;0.40;;;;;;;3.10;95.14;96954.59;5084466;28;20503;-69
2023/12/11 02:51:36;;;;;;;0.40;0.40;;;;;;;3.38;94.60;97002.38;5079892;28;20048;-68
2023/12/11 02:54:03;;;;;;;0.40;0.40;;;;;;;3.18;95.13;96967.44;5063380;28;20052;-69
2023/12/11 02:56:30;;;;;;;0.40;0.40;;;;;;;3.01;95.21;96942.84;5062657;28;20052;-68
2023/12/11 02:58:57;;;;;;;0.40;0.40;;;;;;;3.14;95.33;96958.28;5064231;28;20608;-69
2023/12/11 03:01:23;;;;;;;0.40;0.40;;;;;;;3.26;95.45;96995.94;5079549;28;20052;-69
2023/12/11 03:03:50;;;;;;;0.40;0.40;;;;;;;3.30;95.30;97014.13;5064528;28;20056;-69
2023/12/11 03:06:20;;;;;;;0.40;0.40;;;;;;;3.15;95.99;96989.22;5064347;28;20059;-69
2023/12/11 03:08:48;;;;;;;0.32;0.32;;;;;;;3.32;96.17;97009.13;5062734;28;20531;-69
2023/12/11 03:11:15;;;;;;;0.40;0.40;;;;;;;2.85;95.92;96934.34;5079521;28;20106;-69
2023/12/11 03:13:42;;;;;;;0.40;0.40;;;;;;;3.35;95.70;96997.50;5082699;28;20056;-69
2023/12/11 03:16:13;;;;;;;0.40;0.40;;;;;;;3.35;96.11;97000.25;5083399;28;20080;-69
2023/12/11 03:18:43;;;;;;;0.40;0.40;;;;;;;3.00;96.08;96949.47;5066471;28;20052;-69
2023/12/11 03:21:10;;;;;;;0.40;0.40;;;;;;;2.82;95.78;96926.78;5066393;28;20496;-69
2023/12/11 03:23:38;;;;;;;0.40;0.40;;;;;;;3.41;95.63;97014.59;5083301;28;20052;-68
2023/12/11 03:26:05;;;;;;;0.40;0.40;;;;;;;3.36;94.61;97020.22;5066472;28;20068;-69
2023/12/11 03:28:32;;;;;;;0.40;0.40;;;;;;;3.16;94.90;97021.72;5074477;28;20518;-69
2023/12/11 03:30:59;;;;;;;0.40;0.40;;;;;;;3.23;95.82;97015.72;5088305;28;20063;-68
2023/12/11 03:33:26;;;;;;;0.30;0.30;;;;;;;2.88;96.60;96944.66;5086474;28;20059;-69
2023/12/11 03:35:53;;;;;;;0.40;0.40;;;;;;;2.67;95.96;96899.94;5086431;28;20109;-68
2023/12/11 03:38:19;;;;;;;0.30;0.30;;;;;;;3.23;96.40;96994.66;5086075;28;20518;-67
2023/12/11 03:40:46;;;;;;;0.40;0.40;;;;;;;3.30;97.60;97000.44;5086689;28;20143;-68
2023/12/11 03:43:13;;;;;;;0.40;0.40;;;;;;;3.29;96.92;97009.78;5088103;28;20063;-68
2023/12/11 03:45:40;;;;;;;0.40;0.40;;;;;;;3.01;97.15;97011.25;5086111;28;20059;-69
2023/12/11 03:48:07;;;;;;;0.40;0.40;;;;;;;3.16;96.51;97015.44;5086551;28;20062;-68
2023/12/11 03:50:34;;;;;;;0.40;0.40;;;;;;;3.09;96.98;97022.22;5087984;28;20060;-69
2023/12/11 03:53:01;;;;;;;0.30;0.30;;;;;;;2.90;96.70;97019.00;5086097;28;20155;-68
2023/12/11 03:55:28;;;;;;;0.40;0.40;;;;;;;2.86;97.83;97028.16;5086495;28;20749;-69
2023/12/11 03:57:55;;;;;;;0.30;0.30;;;;;;;2.34;98.20;96955.44;5086242;28;20439;-68
2023/12/11 04:00:22;;;;;;;0.30;0.30;;;;;;;2.69;98.34;97028.13;5084538;28;20051;-68
2023/12/11 04:02:49;;;;;;;0.40;0.40;;;;;;;2.53;98.45;97007.88;5065845;28;20132;-69
2023/12/11 04:05:16;;;;;;;0.35;0.35;;;;;;;2.62;99.04;97027.81;5065912;28;20143;-68
2023/12/11 04:07:43;;;;;;;0.40;0.40;;;;;;;2.22;99.34;96979.81;5065926;28;20075;-68
2023/12/11 04:10:10;;;;;;;0.40;0.40;;;;;;;2.55;100.00;97039.22;5082305;28;20137;-68
2023/12/11 04:12:43;;;;;;;0.30;0.30;;;;;;;2.67;100.00;97036.66;5065852;28;20048;-69
2023/12/11 04:15:10;;;;;;;0.35;0.35;;;;;;;2.81;100.00;97036.53;5065735;28;20353;-68
2023/12/11 04:17:37;;;;;;;0.40;0.40;;;;;;;2.79;100.00;97022.34;5082432;28;20055;-69
2023/12/11 04:20:04;;;;;;;0.30;0.30;;;;;;;2.45;100.00;96973.13;5065416;28;20060;-69
2023/12/11 04:22:32;;;;;;;0.38;0.38;;;;;;;2.79;100.00;97033.28;5082125;28;20094;-69
2023/12/11 04:24:58;;;;;;;0.40;0.40;;;;;;;2.22;100.00;96947.03;5064354;28;20056;-69
2023/12/11 04:27:25;;;;;;;0.30;0.30;;;;;;;2.78;100.00;97026.22;5065713;28;20052;-69
2023/12/11 04:29:52;;;;;;;0.30;0.30;;;;;;;2.84;100.00;97024.94;5082005;28;20575;-69
2023/12/11 04:32:19;;;;;;;0.38;0.38;;;;;;;2.89;98.98;97041.19;5085551;28;20059;-69
2023/12/11 04:34:46;;;;;;;0.40;0.40;;;;;;;2.73;98.40;97042.78;5085679;28;20472;-68
2023/12/11 04:37:13;;;;;;;0.40;0.40;;;;;;;2.64;98.13;97042.75;5085638;28;20056;-68
2023/12/11 04:39:40;;;;;;;0.30;0.30;;;;;;;2.55;98.73;97050.16;5085088;28;20109;-68
2023/12/11 04:42:07;;;;;;;0.30;0.30;;;;;;;2.47;98.64;97058.31;5085311;28;20048;-67
2023/12/11 04:44:34;;;;;;;0.30;0.30;;;;;;;2.37;98.61;97047.69;5085168;28;20314;-68
2023/12/11 04:47:01;;;;;;;0.30;0.30;;;;;;;2.32;98.74;97050.56;5086537;28;20055;-67
2023/12/11 04:49:27;;;;;;;0.30;0.30;;;;;;;2.23;99.67;97079.81;5084839;28;20105;-68
2023/12/11 04:51:54;;;;;;;0.30;0.30;;;;;;;2.18;100.00;97060.81;5087040;28;20288;-68
2023/12/11 04:54:21;;;;;;;0.30;0.30;;;;;;;1.87;100.00;97019.06;5086597;28;20051;-68
2023/12/11 04:56:48;;;;;;;0.30;0.30;;;;;;;0.96;100.00;96931.47;5086900;28;20048;-68
2023/12/11 04:59:15;;;;;;;0.30;0.30;;;;;;;1.97;100.00;97067.97;5085030;28;20582;-68
2023/12/11 05:01:42;;;;;;;0.30;0.30;;;;;;;2.11;100.00;97061.28;5086422;28;20069;-67
2023/12/11 05:04:09;;;;;;;0.30;0.30;;;;;;;1.86;100.00;97042.03;5086651;28;20052;-67
2023/12/11 05:06:36;;;;;;;0.30;0.30;;;;;;;2.28;100.00;97071.44;5085906;28;20529;-67
2023/12/11 05:09:02;;;;;;;0.30;0.30;;;;;;;2.33;100.00;97071.31;5085001;28;20080;-67
2023/12/11 05:11:29;;;;;;;0.30;0.30;;;;;;;2.27;100.00;97048.00;5085978;28;20067;-67
2023/12/11 05:13:56;;;;;;;0.40;0.40;;;;;;;2.29;100.00;97073.88;5086581;28;20064;-67
2023/12/11 05:16:23;;;;;;;0.40;0.40;;;;;;;2.27;100.00;97075.31;5086164;28;20117;-67
2023/12/11 05:18:53;;;;;;;0.30;0.30;;;;;;;2.41;100.00;97070.53;5084394;28;20091;-69
2023/12/11 05:21:20;;;;;;;0.30;0.30;;;;;;;1.69;100.00;96971.00;5085802;28;20485;-68
2023/12/11 05:23:47;;;;;;;0.30;0.30;;;;;;;1.91;100.00;96990.03;5084713;28;20078;-67
2023/12/11 05:26:20;;;;;;;0.30;0.30;;;;;;;2.14;100.00;97059.81;5085849;28;20075;-68
2023/12/11 05:28:47;;;;;;;;;;;;;;;2.18;100.00;97063.56;5086167;28;20048;-67
2023/12/11 05:31:15;;;;;;;0.30;0.30;;;;;;;1.58;100.00;96971.25;5085917;28;19930;-68
2023/12/11 05:33:41;;;;;;;0.30;0.30;;;;;;;2.24;100.00;97059.56;5086020;28;20055;-68
2023/12/11 05:36:09;;;;;;;0.40;0.40;;;;;;;1.90;99.94;97004.81;5085423;28;20048;-68
2023/12/11 05:38:36;;;;;;;0.30;0.30;;;;;;;2.21;97.54;97071.13;5085652;28;20064;-68
2023/12/11 05:41:03;;;;;;;0.32;0.32;;;;;;;2.18;97.74;97067.06;5085717;28;20441;-68
2023/12/11 05:43:30;;;;;;;0.30;0.30;;;;;;;1.76;96.79;97037.66;5085251;28;20418;-68
2023/12/11 05:45:57;;;;;;;0.30;0.30;;;;;;;2.12;97.31;97071.06;5081673;28;20053;-69
2023/12/11 05:48:23;;;;;;;0.30;0.30;;;;;;;1.43;97.80;96996.25;5080174;28;20055;-68
2023/12/11 05:50:50;;;;;;;0.40;0.40;;;;;;;1.56;97.16;96989.88;5063687;28;20135;-68
2023/12/11 05:53:17;;;;;;;0.30;0.30;;;;;;;2.12;98.65;97086.69;5062360;28;20057;-67
2023/12/11 05:55:44;;;;;;;0.30;0.30;;;;;;;2.19;99.84;97084.28;5063443;28;20527;-69
2023/12/11 05:58:11;;;;;;;0.30;0.30;;;;;;;1.44;100.00;97085.16;5063476;28;20578;-69
2023/12/11 06:00:38;;;;;;;0.30;0.30;;;;;;;1.21;100.00;96974.47;5063404;28;20056;-69
2023/12/11 06:03:05;;;;;;;0.30;0.30;;;;;;;1.96;100.00;97077.28;5063906;28;20495;-69
2023/12/11 06:05:32;;;;;;;0.30;0.30;;;;;;;1.82;100.00;97079.31;5063301;28;20080;-69
2023/12/11 06:07:59;;;;;;;0.30;0.30;;;;;;;1.17;100.00;97106.31;5065390;28;20130;-68
2023/12/11 06:10:26;;;;;;;0.30;0.30;;;;;;;0.94;100.00;97086.38;5064489;28;20048;-68
2023/12/11 06:12:53;;;;;;;0.30;0.30;;;;;;;1.36;100.00;97094.09;5063609;28;20131;-69
2023/12/11 06:15:20;;;;;;;0.30;0.30;;;;;;;1.46;100.00;97082.94;5080333;28;20056;-68
2023/12/11 06:17:47;;;;;;;0.30;0.30;;;;;;;1.32;100.00;97093.13;5063118;28;20117;-69
2023/12/11 06:20:14;;;;;;;0.30;0.30;;;;;;;0.79;100.00;97072.31;5063140;28;20067;-67
2023/12/11 06:22:41;;;;;;;0.30;0.30;;;;;;;1.30;100.00;97078.97;5062751;28;20048;-66
2023/12/11 06:25:08;;;;;;;0.30;0.30;;;;;;;1.54;100.00;97087.66;5064507;28;20052;-69
2023/12/11 06:27:35;;;;;;;0.30;0.30;;;;;;;1.79;100.00;97085.41;5063426;28;20059;-68
2023/12/11 06:30:04;;;;;;;0.30;0.30;;;;;;;1.82;100.00;97071.91;5091746;28;20048;-69
2023/12/11 06:32:32;;;;;;;0.30;0.30;;;;;;;1.98;100.00;97086.75;5084619;28;20048;-68
2023/12/11 06:34:59;;;;;;;0.30;0.30;;;;;;;2.22;100.00;97100.03;5082920;28;20139;-68
2023/12/11 06:37:26;;;;;;;0.38;0.38;;;;;;;2.33;100.00;97093.16;5083444;28;20067;-68
2023/12/11 06:39:53;;;;;;;0.40;0.40;;;;;;;2.07;100.00;97054.03;5084716;28;20058;-68
2023/12/11 06:42:20;;;;;;;0.30;0.30;;;;;;;1.79;100.00;97019.88;5083100;28;20166;-68
2023/12/11 06:44:47;;;;;;;0.40;0.40;;;;;;;2.47;100.00;97113.81;5083513;28;20056;-69
2023/12/11 06:47:14;;;;;;;0.40;0.40;;;;;;;2.59;100.00;97099.53;5084117;28;20613;-69
2023/12/11 06:49:42;;;;;;;0.40;0.40;;;;;;;2.62;100.00;97085.22;5083305;28;20052;-69
2023/12/11 06:52:09;;;;;;;0.30;0.30;;;;;;;2.24;98.56;97013.09;5083300;28;20048;-68
2023/12/11 06:54:36;;;;;;;0.38;0.38;;;;;;;2.83;97.07;97105.34;5084561;28;20056;-69
2023/12/11 06:57:04;;;;;;;0.40;0.40;;;;;;;2.90;97.83;97094.75;5082993;28;20502;-69
2023/12/11 06:59:30;;;;;;;0.40;0.40;;;;;;;2.66;98.14;97067.03;5083118;28;20514;-68
2023/12/11 07:01:57;;;;;;;0.40;0.40;;;;;;;3.09;98.80;97100.75;5084436;28;20063;-69
2023/12/11 07:04:24;;;;;;;0.40;0.40;;;;;;;2.97;96.87;97095.91;5071728;28;20497;-68
2023/12/11 07:06:51;;;;;;;0.30;0.30;;;;;;;3.11;97.85;97101.22;5075831;28;20134;-63
2023/12/11 07:09:19;;;;;;;0.40;0.40;;;;;;;3.16;95.70;97095.59;5078833;28;20135;-65
2023/12/11 07:11:45;;;;;;;0.30;0.30;;;;;;;3.01;95.37;97102.34;5094195;28;20048;-67
2023/12/11 07:14:12;;;;;;;0.40;0.40;;;;;;;2.34;96.59;96988.22;5082212;28;20044;-66
2023/12/11 07:16:39;;;;;;;0.30;0.30;;;;;;;3.10;97.17;97099.59;5083568;28;20426;-70
2023/12/11 07:19:07;;;;;;;0.40;0.40;;;;;;;2.40;95.84;96992.41;5078657;28;20059;-66
2023/12/11 07:21:34;;;;;;;0.40;0.40;;;;;;;3.11;95.67;97106.72;5072645;28;20055;-69
2023/12/11 07:24:02;;;;;;;0.40;0.40;;;;;;;2.94;95.19;97068.41;5071296;28;20059;-70
2023/12/11 07:26:29;;;;;;;0.40;0.40;;;;;;;2.53;92.87;97005.13;5083942;28;20070;-71
2023/12/11 07:28:56;;;;;;;0.30;0.30;;;;;;;3.21;93.86;97111.84;5081153;28;20040;-65
2023/12/11 07:31:23;;;;;;;0.40;0.40;;;;;;;2.07;92.77;96928.38;5063922;28;20060;-66
2023/12/11 07:33:49;;;;;;;0.40;0.40;;;;;;;2.95;93.56;97061.78;5065455;28;20044;-68
2023/12/11 07:36:19;;;;;;;0.30;0.30;;;;;;;3.10;92.78;97072.25;5070350;28;20063;-71
2023/12/11 07:38:46;;;;;;;0.40;0.40;;;;;;;3.47;91.81;97104.44;5078846;28;20053;-64
2023/12/11 07:41:19;;;;;;;0.40;0.40;;;;;;;3.52;90.35;97106.22;5069176;28;20052;-67
2023/12/11 07:43:46;;;;;;;;;;;;;;;3.60;87.76;97108.13;5068079;28;20040;-62
2023/12/11 07:46:20;;;;;;;0.40;0.40;;;;;;;3.45;90.35;97101.22;5073272;28;19947;-64
2023/12/11 07:48:47;;;;;;;0.40;0.40;;;;;;;3.22;90.51;97068.88;5067942;28;20051;-68
2023/12/11 07:51:25;;;;;;;0.30;0.30;;;;;;;3.05;91.08;97031.38;5082477;28;20056;-67
2023/12/11 07:53:58;;;;;;;0.40;0.40;;;;;;;3.25;89.74;97035.38;5079357;28;20543;-64
2023/12/11 07:56:25;;;;;;;;;;;;;;;3.82;88.67;97106.00;5065352;28;20045;-63
2023/12/11 07:58:52;;;;;;;0.40;0.40;;;;;;;3.07;89.09;97051.81;5068513;28;19935;-62
2023/12/11 08:01:19;;;;;;;0.40;0.40;;;;;;;3.43;88.89;97114.41;5073251;28;20056;-64
2023/12/11 08:03:47;;;;;;;0.40;0.40;;;;;;;3.54;89.49;97110.22;5070086;28;20568;-62
2023/12/11 08:06:15;;;;;;;0.38;0.38;;;;;;;3.62;88.34;97095.72;5078488;28;20144;-62
2023/12/11 08:08:45;;;;;;;0.40;0.40;;;;;;;2.28;88.97;96852.84;5068666;28;20054;-71
2023/12/11 08:11:20;;;;;;;0.40;0.40;;;;;;;3.79;88.67;97112.16;5070391;28;20059;-64
2023/12/11 08:13:48;;;;;;;0.40;0.40;;;;;;;3.01;90.06;97028.47;5072252;28;20102;-68
2023/12/11 08:16:16;;;;;;;0.40;0.40;;;;;;;2.98;89.91;97014.63;5065806;28;20060;-67
2023/12/11 08:18:44;;;;;;;0.40;0.40;;;;;;;3.78;90.87;97105.03;5081143;28;20533;-68
2023/12/11 08:21:12;;;;;;;0.40;0.40;;;;;;;3.21;89.96;97016.06;5078635;28;20052;-68
2023/12/11 08:23:39;;;;;;;0.40;0.40;;;;;;;3.40;89.82;97076.75;5064907;28;20063;-70
2023/12/11 08:26:07;;;;;;;0.40;0.40;;;;;;;3.24;89.72;96979.03;5081495;28;20059;-71
2023/12/11 08:28:34;;;;;;;0.40;0.40;;;;;;;3.19;92.69;97088.66;5092400;28;20629;-63
2023/12/11 08:31:01;;;;;;;0.40;0.40;;;;;;;3.47;92.30;97096.22;5076427;28;20526;-63
2023/12/11 08:33:28;;;;;;;0.40;0.40;;;;;;;0.49;89.97;96577.91;5085183;28;20079;-68
2023/12/11 08:35:55;;;;;;;0.40;0.40;;;;;;;3.92;90.14;97089.22;5083030;28;20048;-62
2023/12/11 08:38:23;;;;;;;0.40;0.40;;;;;;;3.86;90.68;97095.19;5086214;28;20557;-63
2023/12/11 08:40:50;;;;;;;0.40;0.40;;;;;;;3.36;91.66;97070.31;5084342;28;20052;-70
2023/12/11 08:43:17;;;;;;;0.40;0.40;;;;;;;3.33;91.48;97016.22;5084415;28;20056;-70
2023/12/11 08:45:44;;;;;;;0.35;0.35;;;;;;;3.51;92.92;97093.66;5081482;28;20515;-68
2023/12/11 08:48:10;;;;;;;0.30;0.30;;;;;;;2.84;95.12;97035.88;5086530;28;20150;-67
2023/12/11 08:50:37;;;;;;;0.40;0.40;;;;;;;2.41;98.84;97032.25;5080798;28;20604;-71
2023/12/11 08:53:04;;;;;;;0.40;0.40;;;;;;;3.10;98.20;97085.91;5079196;28;20051;-68
2023/12/11 08:55:31;;;;;;;0.40;0.40;;;;;;;2.33;96.44;96867.16;5066101;28;20102;-66
2023/12/11 08:57:58;;;;;;;0.40;0.40;;;;;;;3.76;94.44;97052.50;5064790;28;20060;-64
2023/12/11 09:00:25;;;;;;;0.40;0.40;;;;;;;3.60;93.57;97099.94;5073064;28;20144;-63
2023/12/11 09:02:52;;;;;;;0.40;0.40;;;;;;;3.94;94.34;97081.47;5086507;28;20127;-64
2023/12/11 09:05:19;;;;;;;0.40;0.40;;;;;;;4.47;92.45;97072.75;5072032;28;20364;-62
2023/12/11 09:07:45;;;;;;;0.50;0.50;;;;;;;4.39;89.53;96994.84;5066011;28;20136;-63
2023/12/11 09:10:12;;;;;;;0.40;0.40;;;;;;;5.08;87.75;97090.41;5067602;28;20109;-73
2023/12/11 09:12:40;;;;;;;0.50;0.50;;;;;;;5.22;86.41;97055.28;5084679;28;20514;-64
2023/12/11 09:15:07;;;;;;;0.50;0.50;;;;;;;5.51;85.02;97077.97;5084787;28;20882;-74
2023/12/11 09:17:37;;;;;;;0.50;0.50;;;;;;;5.73;83.24;97065.78;5084004;28;20125;-75
2023/12/11 09:20:07;;;;;;;0.50;0.50;;;;;;;5.45;82.89;97020.84;5085013;28;20135;-66
2023/12/11 09:22:36;;;;;;;0.50;0.50;;;;;;;5.08;82.84;96955.91;5077413;28;20056;-65
2023/12/11 09:25:03;;;;;;;0.50;0.50;;;;;;;5.80;83.52;97031.13;5074305;28;20052;-64
2023/12/11 09:27:30;;;;;;;0.60;0.60;;;;;;;5.86;81.94;97060.03;5067365;28;20045;-66
2023/12/11 09:29:57;;;;;;;0.55;0.55;;;;;;;5.76;80.59;97018.41;5071477;28;20127;-68
2023/12/11 09:32:24;;;;;;;0.50;0.50;;;;;;;5.59;81.08;97000.16;5082408;28;20044;-63
2023/12/11 09:34:51;;;;;;;0.50;0.50;;;;;;;5.88;81.21;97043.22;5074562;28;20490;-68
2023/12/11 09:37:21;;;;;;;0.50;0.50;;;;;;;6.05;81.58;97026.53;5078117;28;20056;-64
2023/12/11 09:39:48;;;;;;;0.50;0.50;;;;;;;6.03;81.17;97037.06;5083407;28;20507;-67
2023/12/11 09:42:16;;;;;;;0.60;0.60;;;;;;;6.07;80.56;97026.97;5085373;28;20054;-63
2023/12/11 09:44:47;;;;;;;0.60;0.60;;;;;;;6.01;81.27;97031.06;5085170;28;20052;-63
2023/12/11 09:47:18;;;;;;;0.50;0.50;;;;;;;4.85;83.88;96990.34;5085098;28;20054;-61
2023/12/11 09:49:48;;;;;;;0.50;0.50;;;;;;;5.79;84.10;97020.47;5069101;28;20059;-73
2023/12/11 09:52:15;;;;;;;0.60;0.60;;;;;;;6.01;83.08;97028.31;5063289;28;20048;-63
2023/12/11 09:54:42;;;;;;;0.52;0.52;;;;;;;6.25;81.86;97005.56;5076092;28;20113;-72
2023/12/11 09:57:16;;;;;;;0.60;0.60;;;;;;;5.91;81.18;96935.34;5083758;28;20051;-74
2023/12/11 09:59:43;;;;;;;0.60;0.60;;;;;;;5.57;80.41;96880.75;5076563;28;20059;-63
2023/12/11 10:02:15;;;;;;;0.57;0.57;;;;;;;6.20;80.51;96968.09;5064806;28;20057;-72
2023/12/11 10:05:01;;;;;;;0.60;0.60;;;;;;;6.73;79.61;97000.84;5076454;28;20040;-72
2023/12/11 10:07:29;;;;;;;0.60;0.60;;;;;;;6.98;78.65;97005.16;5083620;28;20514;-64
2023/12/11 10:09:56;;;;;;;0.60;0.60;;;;;;;6.79;78.72;97004.97;5084598;28;20055;-62
2023/12/11 10:12:23;;;;;;;0.60;0.60;;;;;;;5.68;79.88;96881.91;5085032;28;20090;-63
2023/12/11 10:15:00;;;;;;;0.60;0.60;;;;;;;6.12;78.62;96897.50;5084718;28;20058;-72
2023/12/11 10:17:27;;;;;;;0.60;0.60;;;;;;;6.81;78.47;96997.13;5085139;28;20113;-63
2023/12/11 10:19:55;;;;;;;0.70;0.70;;;;;;;6.27;77.96;96943.56;5084347;28;20056;-62
2023/12/11 10:22:27;;;;;;;0.60;0.60;;;;;;;7.24;76.75;97002.75;5083488;28;20059;-74
2023/12/11 10:24:54;;;;;;;0.60;0.60;;;;;;;6.55;75.42;96911.44;5084373;28;20048;-73
2023/12/11 10:27:25;;;;;;;0.60;0.60;;;;;;;7.02;75.65;96964.75;5084761;28;20109;-72
2023/12/11 10:30:08;;;;;;;0.60;0.60;;;;;;;7.65;75.11;96988.56;5084774;28;20052;-74
2023/12/11 10:32:35;;;;;;;0.68;0.68;;;;;;;7.76;73.28;96988.06;5084955;28;20048;-64
2023/12/11 10:35:02;;;;;;;0.60;0.60;;;;;;;8.01;72.97;96984.00;5068663;28;20063;-63
2023/12/11 10:37:30;;;;;;;0.70;0.70;;;;;;;8.36;73.88;96979.41;5064239;28;20052;-64
2023/12/11 10:39:58;;;;;;;0.70;0.70;;;;;;;7.95;72.77;96902.69;5077902;28;20067;-64
2023/12/11 10:42:25;;;;;;;0.70;0.70;;;;;;;8.87;71.73;96967.19;5084777;28;20113;-63
2023/12/11 10:44:53;;;;;;;0.70;0.70;;;;;;;8.46;70.19;96868.44;5079729;28;20049;-74
2023/12/11 10:47:21;;;;;;;0.70;0.70;;;;;;;9.15;69.57;96909.78;5063086;28;20064;-71
2023/12/11 10:49:49;;;;;;;0.70;0.70;;;;;;;9.68;68.76;96943.97;5076931;28;20117;-74
2023/12/11 10:52:16;;;;;;;0.80;0.80;;;;;;;9.46;67.94;96856.25;5084613;28;20132;-62
2023/12/11 10:54:45;;;;;;;0.80;0.80;;;;;;;9.89;66.89;96914.75;5084500;28;20047;-70
2023/12/11 10:57:14;;;;;;;0.90;0.90;;;;;;;9.93;65.29;96887.91;5064664;28;20072;-73
2023/12/11 10:59:43;;;;;;;0.80;0.80;;;;;;;9.23;65.17;96791.88;5090271;28;20072;-64
2023/12/11 11:02:15;;;;;;;0.80;0.80;;;;;;;10.10;64.34;96931.72;5084602;28;20071;-62
2023/12/11 11:04:44;;;;;;;0.80;0.80;;;;;;;10.17;64.69;96920.78;5079048;28;20056;-63
2023/12/11 11:07:34;;;;;;;0.90;0.90;;;;;;;10.21;64.66;96918.84;5062835;28;20157;-73
2023/12/11 11:10:09;;;;;;;0.80;0.80;;;;;;;10.22;62.65;96920.47;5076312;28;20055;-73
2023/12/11 11:13:00;;;;;;;0.80;0.80;;;;;;;10.20;62.88;96920.03;5082609;28;20048;-73
2023/12/11 11:15:27;;;;;;;0.80;0.80;;;;;;;9.39;62.70;96789.81;5083853;28;20494;-73
2023/12/11 11:18:02;;;;;;;0.80;0.80;;;;;;;10.12;62.90;96906.44;5084292;28;20044;-73
2023/12/11 11:20:34;;;;;;;0.80;0.80;;;;;;;10.18;62.49;96916.84;5084006;28;20063;-73
2023/12/11 11:23:13;;;;;;;0.90;0.90;;;;;;;10.11;63.55;96908.44;5064819;28;20071;-69
2023/12/11 11:25:41;;;;;;;0.70;0.70;;;;;;;9.70;62.15;96823.53;5082931;28;20135;-69
2023/12/11 11:28:40;;;;;;;0.80;0.80;;;;;;;10.39;61.89;96908.88;5067091;28;20044;-69
2023/12/11 11:31:10;;;;;;;0.80;0.80;;;;;;;10.32;61.85;96900.44;5064658;28;20554;-68
2023/12/11 11:33:52;;;;;;;0.80;0.80;;;;;;;9.60;61.40;96773.56;5075951;28;20135;-72
2023/12/11 11:36:40;;;;;;;0.75;0.75;;;;;;;10.61;61.45;96896.13;5074190;28;20056;-71
2023/12/11 11:39:07;;;;;;;0.85;0.85;;;;;;;9.67;60.27;96762.63;5073328;28;20052;-61
2023/12/11 11:41:34;;;;;;;0.90;0.90;;;;;;;9.94;60.57;96756.72;5085289;28;20048;-61
2023/12/11 11:44:09;;;;;;;0.85;0.85;;;;;;;10.33;58.89;96879.91;5082243;28;20058;-63
2023/12/11 11:46:52;;;;;;;0.90;0.90;;;;;;;10.34;59.74;96864.06;5077494;28;20131;-70